Atlanta (ATL/KATL)

Information

Location
Atlanta, GA
Local Time
16:24 / 4:24 pm
GMT Time
20:24 / 8:24 pm
Gates
No FAA reported delays
METAR KATL 231952Z 27011G21KT 10SM FEW050 22/11 A2987 RMK AO2 PK WND 28026/1931 SLP106 T02220111
TAF KATL 231935Z 2320/2424 28010G20KT P6SM FEW025 SCT035 FM240000 29009KT P6SM FEW040 FM240400 28005KT P6SM SKC FM241400 29009KT P6SM SKC FM241600 29010G20KT P6SM FEW040